createdAt,value
2016-06-14T00:00:07.022Z,0
2016-06-14T00:01:06.713Z,0
2016-06-14T00:02:06.716Z,0
2016-06-14T00:03:06.687Z,0
2016-06-14T00:04:06.660Z,0
2016-06-14T00:05:06.646Z,0
2016-06-14T00:06:06.619Z,0
2016-06-14T00:07:06.606Z,0
2016-06-14T00:08:06.578Z,0
2016-06-14T00:09:06.550Z,0
2016-06-14T00:10:06.537Z,0
2016-06-14T00:11:06.524Z,0
2016-06-14T00:12:06.497Z,0
2016-06-14T00:13:06.484Z,0
2016-06-14T00:14:07.033Z,0
2016-06-14T00:15:06.491Z,0
2016-06-14T00:16:06.414Z,0
2016-06-14T00:17:06.403Z,0
2016-06-14T00:18:06.359Z,0
2016-06-14T00:19:06.346Z,0
2016-06-14T00:20:06.334Z,0
2016-06-14T00:21:06.321Z,0
2016-06-14T00:22:06.293Z,0
2016-06-14T00:23:06.265Z,0
2016-06-14T00:24:06.096Z,0
2016-06-14T00:25:06.224Z,0
2016-06-14T00:26:06.211Z,0
2016-06-14T00:27:06.183Z,0
2016-06-14T00:28:06.170Z,0
2016-06-14T00:29:06.143Z,0
2016-06-14T00:30:06.129Z,0
2016-06-14T00:31:05.945Z,0
2016-06-14T00:32:06.089Z,0
2016-06-14T00:33:06.046Z,0
2016-06-14T00:34:06.032Z,0
2016-06-14T00:35:06.020Z,0
2016-06-14T00:36:05.992Z,0
2016-06-14T00:37:05.964Z,0
2016-06-14T00:38:05.951Z,0
2016-06-14T00:39:05.939Z,0
2016-06-14T00:40:05.911Z,0
2016-06-14T00:41:05.570Z,0
2016-06-14T00:42:05.869Z,0
2016-06-14T00:43:05.873Z,0
2016-06-14T00:44:05.830Z,0
2016-06-14T00:45:05.800Z,0
2016-06-14T00:46:05.632Z,0
2016-06-14T00:47:05.759Z,0
2016-06-14T00:48:05.732Z,0
2016-06-14T00:49:05.720Z,0
2016-06-14T00:50:05.707Z,0
2016-06-14T00:51:05.679Z,0
2016-06-14T00:52:05.650Z,0
2016-06-14T00:53:05.638Z,0
2016-06-14T00:54:05.486Z,0
2016-06-14T00:55:05.597Z,0
2016-06-14T00:56:05.585Z,0
2016-06-14T00:57:05.557Z,0
2016-06-14T00:58:05.543Z,0
2016-06-14T00:59:05.376Z,0
2016-06-14T01:00:06.082Z,0
2016-06-14T01:01:05.491Z,0
2016-06-14T01:02:05.478Z,0
2016-06-14T01:03:05.434Z,0
2016-06-14T01:04:05.422Z,0
2016-06-14T01:05:05.395Z,0
2016-06-14T01:06:05.381Z,0
2016-06-14T01:07:05.354Z,0
2016-06-14T01:08:05.324Z,0
2016-06-14T01:09:05.296Z,0
2016-06-14T01:10:05.300Z,0
2016-06-14T01:11:05.272Z,0
2016-06-14T01:12:05.243Z,0
2016-06-14T01:13:05.247Z,0
2016-06-14T01:14:05.203Z,0
2016-06-14T01:15:05.378Z,0
2016-06-14T01:16:05.161Z,0
2016-06-14T01:17:05.149Z,0
2016-06-14T01:18:05.138Z,0
2016-06-14T01:19:05.108Z,0
2016-06-14T01:20:05.080Z,0
2016-06-14T01:21:05.068Z,0
2016-06-14T01:22:05.040Z,0
2016-06-14T01:23:05.027Z,0
2016-06-14T01:24:04.998Z,0
2016-06-14T01:25:04.971Z,0
2016-06-14T01:26:04.959Z,0
2016-06-14T01:27:04.946Z,0
2016-06-14T01:28:04.918Z,0
2016-06-14T01:29:04.889Z,0
2016-06-14T01:30:04.908Z,0
2016-06-14T01:31:04.864Z,0
2016-06-14T01:32:04.852Z,0
2016-06-14T01:33:04.808Z,0
2016-06-14T01:34:04.795Z,0
2016-06-14T01:35:04.782Z,0
2016-06-14T01:36:04.755Z,0
2016-06-14T01:37:04.742Z,0
2016-06-14T01:38:04.713Z,0
2016-06-14T01:39:04.702Z,0
2016-06-14T01:40:04.673Z,0
2016-06-14T01:41:04.660Z,0
2016-06-14T01:42:04.648Z,0
2016-06-14T01:43:04.604Z,0
2016-06-14T01:44:04.592Z,0
2016-06-14T01:45:04.782Z,0
2016-06-14T01:46:04.551Z,0
2016-06-14T01:47:04.524Z,0
2016-06-14T01:48:04.510Z,0
2016-06-14T01:49:04.482Z,0
2016-06-14T01:50:04.485Z,0
2016-06-14T01:51:04.301Z,0
2016-06-14T01:52:04.288Z,0
2016-06-14T01:53:04.276Z,0
2016-06-14T01:54:04.387Z,0
2016-06-14T01:55:04.391Z,0
2016-06-14T01:56:04.363Z,0
2016-06-14T01:57:04.335Z,0
2016-06-14T01:58:04.322Z,0
2016-06-14T01:59:04.310Z,0
2016-06-14T02:00:04.516Z,0
2016-06-14T02:01:04.097Z,0
2016-06-14T02:02:04.225Z,0
2016-06-14T02:03:04.197Z,0
2016-06-14T02:04:04.201Z,0
2016-06-14T02:05:04.203Z,0
2016-06-14T02:06:04.144Z,0
2016-06-14T02:07:04.131Z,0
2016-06-14T02:08:04.103Z,0
2016-06-14T02:09:04.091Z,0
2016-06-14T02:10:04.078Z,0
2016-06-14T02:11:04.050Z,0
2016-06-14T02:12:03.865Z,0
2016-06-14T02:13:04.009Z,0
2016-06-14T02:14:03.997Z,0
2016-06-14T02:15:03.968Z,0
2016-06-14T02:16:03.955Z,0
2016-06-14T02:17:03.911Z,0
2016-06-14T02:18:03.744Z,0
2016-06-14T02:19:03.886Z,0
2016-06-14T02:20:03.874Z,0
2016-06-14T02:21:03.831Z,0
2016-06-14T02:22:03.817Z,0
2016-06-14T02:23:03.790Z,0
2016-06-14T02:24:03.621Z,0
2016-06-14T02:25:03.765Z,0
2016-06-14T02:26:03.736Z,0
2016-06-14T02:27:03.708Z,0
2016-06-14T02:28:03.727Z,0
2016-06-14T02:29:03.698Z,0
2016-06-14T02:30:03.655Z,4
2016-06-14T02:31:03.642Z,4
2016-06-14T02:32:03.614Z,4
2016-06-14T02:33:03.429Z,0
2016-06-14T02:34:03.589Z,0
2016-06-14T02:35:03.561Z,4
2016-06-14T02:36:03.532Z,4
2016-06-14T02:37:03.505Z,4
2016-06-14T02:38:03.336Z,4
2016-06-14T02:39:03.464Z,4
2016-06-14T02:40:03.451Z,4
2016-06-14T02:41:03.439Z,4
2016-06-14T02:42:03.411Z,8
2016-06-14T02:43:03.382Z,8
2016-06-14T02:44:03.214Z,8
2016-06-14T02:45:03.373Z,8
2016-06-14T02:46:03.329Z,4
2016-06-14T02:47:03.301Z,8
2016-06-14T02:48:03.132Z,8
2016-06-14T02:49:03.260Z,12
2016-06-14T02:50:03.263Z,8
2016-06-14T02:51:03.251Z,12
2016-06-14T02:52:03.207Z,12
2016-06-14T02:53:03.179Z,16
2016-06-14T02:54:03.104Z,16
2016-06-14T02:55:02.903Z,20
2016-06-14T02:56:02.970Z,24
2016-06-14T02:57:03.175Z,36
2016-06-14T02:58:03.147Z,44
2016-06-14T02:59:02.916Z,48
2016-06-14T03:00:03.059Z,52
2016-06-14T03:01:03.172Z,56
2016-06-14T03:02:03.019Z,60
2016-06-14T03:03:03.038Z,64
2016-06-14T03:04:03.103Z,72
2016-06-14T03:05:03.059Z,80
2016-06-14T03:06:02.922Z,92
2016-06-14T03:07:02.910Z,100
2016-06-14T03:08:02.881Z,108
2016-06-14T03:09:02.853Z,116
2016-06-14T03:10:02.840Z,120
2016-06-14T03:11:02.812Z,128
2016-06-14T03:12:02.785Z,136
2016-06-14T03:13:02.772Z,144
2016-06-14T03:14:02.758Z,152
2016-06-14T03:15:03.199Z,168
2016-06-14T03:16:02.562Z,184
2016-06-14T03:17:02.690Z,200
2016-06-14T03:18:02.678Z,212
2016-06-14T03:19:02.649Z,228
2016-06-14T03:20:02.637Z,240
2016-06-14T03:21:02.608Z,252
2016-06-14T03:22:02.596Z,264
2016-06-14T03:23:02.568Z,284
2016-06-14T03:24:02.540Z,300
2016-06-14T03:25:02.527Z,328
2016-06-14T03:26:02.514Z,372
2016-06-14T03:27:02.487Z,416
2016-06-14T03:28:02.456Z,456
2016-06-14T03:29:02.443Z,432
2016-06-14T03:30:02.558Z,344
2016-06-14T03:31:02.402Z,248
2016-06-14T03:32:02.373Z,224
2016-06-14T03:33:02.346Z,224
2016-06-14T03:34:02.349Z,224
2016-06-14T03:35:02.320Z,256
2016-06-14T03:36:02.323Z,292
2016-06-14T03:37:02.279Z,344
2016-06-14T03:38:02.267Z,348
2016-06-14T03:39:02.240Z,392
2016-06-14T03:40:02.211Z,456
2016-06-14T03:41:02.199Z,472
2016-06-14T03:42:02.185Z,448
2016-06-14T03:43:02.157Z,396
2016-06-14T03:44:02.130Z,376
2016-06-14T03:45:02.351Z,352
2016-06-14T03:46:02.151Z,344
2016-06-14T03:47:02.060Z,352
2016-06-14T03:48:02.048Z,288
2016-06-14T03:49:02.035Z,248
2016-06-14T03:50:02.007Z,244
2016-06-14T03:51:01.979Z,284
2016-06-14T03:52:01.966Z,324
2016-06-14T03:53:01.953Z,372
2016-06-14T03:54:01.925Z,404
2016-06-14T03:55:01.914Z,460
2016-06-14T03:56:01.885Z,596
2016-06-14T03:57:01.872Z,732
2016-06-14T03:58:01.844Z,876
2016-06-14T03:59:01.832Z,1144
2016-06-14T04:00:02.600Z,1204
2016-06-14T04:01:02.510Z,1416
2016-06-14T04:02:01.763Z,1360
2016-06-14T04:03:01.734Z,1176
2016-06-14T04:04:01.722Z,976
2016-06-14T04:05:01.554Z,896
2016-06-14T04:06:01.681Z,1000
2016-06-14T04:07:01.668Z,1124
2016-06-14T04:08:01.640Z,1288
2016-06-14T04:09:01.613Z,1516
2016-06-14T04:10:01.600Z,1772
2016-06-14T04:11:01.587Z,1936
2016-06-14T04:12:01.559Z,2000
2016-06-14T04:13:01.531Z,2116
2016-06-14T04:14:01.518Z,1972
2016-06-14T04:15:01.693Z,1904
2016-06-14T04:16:01.978Z,1868
2016-06-14T04:17:01.465Z,1444
2016-06-14T04:18:01.437Z,1248
2016-06-14T04:19:01.424Z,1108
2016-06-14T04:20:01.397Z,1092
2016-06-14T04:21:01.384Z,1308
2016-06-14T04:22:01.214Z,1404
2016-06-14T04:23:01.343Z,1464
2016-06-14T04:24:01.158Z,1648
2016-06-14T04:25:01.302Z,1508
2016-06-14T04:26:01.290Z,1292
2016-06-14T04:27:01.277Z,1116
2016-06-14T04:28:01.233Z,920
2016-06-14T04:29:01.222Z,936
2016-06-14T04:30:01.817Z,792
2016-06-14T04:31:02.383Z,748
2016-06-14T04:32:01.168Z,724
2016-06-14T04:33:01.140Z,652
2016-06-14T04:34:01.126Z,600
2016-06-14T04:35:00.958Z,632
2016-06-14T04:36:01.086Z,652
2016-06-14T04:37:01.057Z,656
2016-06-14T04:38:01.045Z,680
2016-06-14T04:39:01.017Z,724
2016-06-14T04:40:01.005Z,752
2016-06-14T04:41:00.976Z,752
2016-06-14T04:42:00.979Z,720
2016-06-14T04:43:00.951Z,600
2016-06-14T04:44:00.767Z,532
2016-06-14T04:45:00.895Z,576
2016-06-14T04:46:00.976Z,596
2016-06-14T04:47:00.869Z,608
2016-06-14T04:48:00.686Z,596
2016-06-14T04:49:00.814Z,584
2016-06-14T04:50:00.785Z,588
2016-06-14T04:51:00.773Z,572
2016-06-14T04:52:00.760Z,548
2016-06-14T04:53:00.732Z,604
2016-06-14T04:54:00.720Z,784
2016-06-14T04:55:00.707Z,804
2016-06-14T04:56:00.663Z,928
2016-06-14T04:57:00.494Z,1188
2016-06-14T04:58:00.623Z,1308
2016-06-14T04:59:00.610Z,1320
2016-06-14T05:00:00.613Z,1328
2016-06-14T05:01:00.881Z,1316
2016-06-14T05:02:00.557Z,1304
2016-06-14T05:03:00.544Z,1300
2016-06-14T05:04:00.516Z,1216
2016-06-14T05:05:00.504Z,1104
2016-06-14T05:06:00.475Z,1012
2016-06-14T05:07:00.447Z,888
2016-06-14T05:08:00.434Z,780
2016-06-14T05:09:00.422Z,764
2016-06-14T05:10:00.394Z,728
2016-06-14T05:11:00.209Z,652
2016-06-14T05:12:00.369Z,712
2016-06-14T05:13:00.341Z,788
2016-06-14T05:14:00.313Z,928
2016-06-14T05:15:00.300Z,1112
2016-06-14T05:16:00.522Z,1268
2016-06-14T05:17:00.244Z,1380
2016-06-14T05:18:00.215Z,1424
2016-06-14T05:19:00.203Z,1544
2016-06-14T05:20:00.190Z,1788
2016-06-14T05:21:00.162Z,2036
2016-06-14T05:22:00.134Z,2224
2016-06-14T05:23:00.121Z,1980
2016-06-14T05:24:00.093Z,2080
2016-06-14T05:25:00.081Z,2128
2016-06-14T05:26:00.053Z,2220
2016-06-14T05:27:00.025Z,2552
2016-06-14T05:28:00.027Z,3124
2016-06-14T05:28:59.984Z,3240
2016-06-14T05:29:59.971Z,3420
2016-06-14T05:30:59.880Z,4008
2016-06-14T05:31:59.961Z,5064
2016-06-14T05:32:59.918Z,6224
2016-06-14T05:33:59.889Z,7044
2016-06-14T05:34:59.877Z,6316
2016-06-14T05:35:59.849Z,5216
2016-06-14T05:36:59.837Z,5008
2016-06-14T05:37:59.808Z,4876
2016-06-14T05:38:59.796Z,4740
2016-06-14T05:39:59.798Z,5252
2016-06-14T05:40:59.770Z,5652
2016-06-14T05:41:59.727Z,6252
2016-06-14T05:42:59.714Z,5896
2016-06-14T05:43:59.702Z,8096
2016-06-14T05:44:59.673Z,10944
2016-06-14T05:45:59.505Z,11408
2016-06-14T05:46:59.648Z,10096
2016-06-14T05:47:59.604Z,10828
2016-06-14T05:48:59.592Z,10628
2016-06-14T05:49:59.564Z,9928
2016-06-14T05:50:59.566Z,7928
2016-06-14T05:51:59.539Z,6088
2016-06-14T05:52:59.511Z,6436
2016-06-14T05:53:59.498Z,6168
2016-06-14T05:54:59.485Z,5200
2016-06-14T05:55:59.457Z,6132
2016-06-14T05:56:59.429Z,4148
2016-06-14T05:57:59.417Z,5040
2016-06-14T05:58:59.388Z,5512
2016-06-14T05:59:59.376Z,5960
2016-06-14T06:01:00.254Z,5640
2016-06-14T06:01:59.350Z,5812
2016-06-14T06:02:59.307Z,6636
2016-06-14T06:03:59.295Z,8692
2016-06-14T06:04:59.157Z,12092
2016-06-14T06:05:59.269Z,12412
2016-06-14T06:06:59.257Z,12144
2016-06-14T06:07:59.229Z,11044
2016-06-14T06:08:59.201Z,11100
2016-06-14T06:09:59.188Z,10884
2016-06-14T06:10:59.160Z,11516
2016-06-14T06:11:59.147Z,9900
2016-06-14T06:12:59.119Z,12412
2016-06-14T06:13:59.106Z,16640
2016-06-14T06:14:59.094Z,29920
2016-06-14T06:15:59.753Z,17032
2016-06-14T06:16:59.038Z,13784
2016-06-14T06:17:59.024Z,13044
2016-06-14T06:18:58.997Z,13956
2016-06-14T06:19:58.984Z,21248
2016-06-14T06:20:58.971Z,14676
2016-06-14T06:21:58.959Z,15660
2016-06-14T06:22:58.931Z,22720
2016-06-14T06:23:58.903Z,20512
2016-06-14T06:24:58.765Z,17888
2016-06-14T06:25:58.893Z,17024
2016-06-14T06:26:58.865Z,17684
2016-06-14T06:27:58.837Z,20224
2016-06-14T06:28:58.841Z,15344
2016-06-14T06:29:58.796Z,12252
2016-06-14T06:30:59.300Z,9492
2016-06-14T06:31:58.772Z,9628
2016-06-14T06:32:58.743Z,8868
2016-06-14T06:33:58.731Z,7780
2016-06-14T06:34:58.718Z,7468
2016-06-14T06:35:58.705Z,7264
2016-06-14T06:36:58.677Z,7760
2016-06-14T06:37:58.665Z,7432
2016-06-14T06:38:58.636Z,6892
2016-06-14T06:39:58.639Z,7620
2016-06-14T06:40:58.595Z,8504
2016-06-14T06:41:58.583Z,8132
2016-06-14T06:42:58.571Z,6132
2016-06-14T06:43:58.558Z,4852
2016-06-14T06:44:58.529Z,4152
2016-06-14T06:45:58.902Z,4112
2016-06-14T06:46:58.554Z,3232
2016-06-14T06:47:58.581Z,2532
2016-06-14T06:48:58.607Z,3088
2016-06-14T06:49:58.478Z,4076
2016-06-14T06:50:58.629Z,5816
2016-06-14T06:51:58.630Z,9148
2016-06-14T06:52:58.616Z,9916
2016-06-14T06:53:58.602Z,10916
2016-06-14T06:54:58.604Z,11348
2016-06-14T06:55:58.600Z,10920
2016-06-14T06:56:58.577Z,9824
2016-06-14T06:57:58.568Z,9408
2016-06-14T06:58:58.561Z,8920
2016-06-14T06:59:58.538Z,8672
2016-06-14T07:00:58.544Z,8544
2016-06-14T07:01:58.502Z,9136
2016-06-14T07:02:58.492Z,9212
2016-06-14T07:03:58.480Z,7048
2016-06-14T07:04:58.455Z,4472
2016-06-14T07:05:58.442Z,4624
2016-06-14T07:06:58.415Z,5080
2016-06-14T07:07:58.403Z,7652
2016-06-14T07:08:58.376Z,7680
2016-06-14T07:09:58.378Z,8336
2016-06-14T07:10:58.195Z,8868
2016-06-14T07:11:58.324Z,9228
2016-06-14T07:12:58.311Z,10016
2016-06-14T07:13:58.142Z,9516
2016-06-14T07:14:58.271Z,10420
2016-06-14T07:15:58.946Z,11304
2016-06-14T07:16:58.230Z,11480
2016-06-14T07:17:58.202Z,11408
2016-06-14T07:18:58.189Z,10752
2016-06-14T07:19:58.193Z,10072
2016-06-14T07:20:58.008Z,10088
2016-06-14T07:21:58.137Z,9628
2016-06-14T07:22:58.124Z,9880
2016-06-14T07:23:58.096Z,9568
2016-06-14T07:24:58.083Z,9784
2016-06-14T07:25:58.055Z,9112
2016-06-14T07:26:58.042Z,8924
2016-06-14T07:27:58.014Z,8332
2016-06-14T07:28:58.002Z,8968
2016-06-14T07:29:57.989Z,9596
2016-06-14T07:30:57.976Z,9396
2016-06-14T07:31:58.573Z,8952
2016-06-14T07:32:57.921Z,8460
2016-06-14T07:33:57.611Z,8852
2016-06-14T07:34:57.895Z,9320
2016-06-14T07:35:57.883Z,9764
2016-06-14T07:36:57.855Z,8796
2016-06-14T07:37:57.841Z,8144
2016-06-14T07:38:57.813Z,7432
2016-06-14T07:39:57.801Z,5536
2016-06-14T07:40:57.773Z,5088
2016-06-14T07:41:57.760Z,5664
2016-06-14T07:42:57.732Z,6988
2016-06-14T07:43:57.704Z,7708
2016-06-14T07:44:57.707Z,7208
2016-06-14T07:45:57.539Z,7568
2016-06-14T07:46:58.588Z,6792
2016-06-14T07:47:57.653Z,6336
2016-06-14T07:48:57.626Z,5608
2016-06-14T07:49:57.473Z,4196
2016-06-14T07:50:57.584Z,4320
2016-06-14T07:51:57.573Z,4228
2016-06-14T07:52:57.560Z,6724
2016-06-14T07:53:57.516Z,8120
2016-06-14T07:54:57.519Z,7544
2016-06-14T07:55:57.491Z,5132
2016-06-14T07:56:57.494Z,3836
2016-06-14T07:57:57.451Z,3120
2016-06-14T07:58:57.437Z,2972
2016-06-14T07:59:57.425Z,2840
2016-06-14T08:00:57.413Z,3320
2016-06-14T08:01:57.087Z,3664
2016-06-14T08:02:57.357Z,4812
2016-06-14T08:03:57.344Z,5680
2016-06-14T08:04:57.316Z,11192
2016-06-14T08:05:57.131Z,9564
2016-06-14T08:06:57.274Z,8624
2016-06-14T08:07:57.247Z,10420
2016-06-14T08:08:57.234Z,10004
2016-06-14T08:09:57.221Z,8396
2016-06-14T08:10:57.193Z,4688
2016-06-14T08:11:57.197Z,3444
2016-06-14T08:12:57.012Z,3536
2016-06-14T08:13:57.140Z,4684
2016-06-14T08:14:57.127Z,3848
2016-06-14T08:15:57.318Z,5640
2016-06-14T08:16:57.586Z,7104
2016-06-14T08:17:57.058Z,7912
2016-06-14T08:18:57.046Z,9996
2016-06-14T08:19:57.034Z,12232
2016-06-14T08:20:57.005Z,17240
2016-06-14T08:21:56.977Z,19168
2016-06-14T08:22:56.964Z,22272
2016-06-14T08:23:56.967Z,27936
2016-06-14T08:24:56.925Z,23296
2016-06-14T08:25:56.911Z,25824
2016-06-14T08:26:56.883Z,27968
2016-06-14T08:27:56.886Z,30816
2016-06-14T08:28:56.858Z,26880
2016-06-14T08:29:56.830Z,29184
2016-06-14T08:30:57.192Z,20064
2016-06-14T08:31:57.852Z,19040
2016-06-14T08:32:56.777Z,22624
2016-06-14T08:33:56.763Z,20032
2016-06-14T08:34:56.736Z,29056
2016-06-14T08:35:56.723Z,30560
2016-06-14T08:36:56.695Z,19232
2016-06-14T08:37:56.698Z,15048
2016-06-14T08:38:56.685Z,16992
2016-06-14T08:39:56.657Z,21792
2016-06-14T08:40:56.629Z,23744
2016-06-14T08:41:56.617Z,20608
2016-06-14T08:42:56.605Z,15656
2016-06-14T08:43:56.575Z,17008
2016-06-14T08:44:56.579Z,16288
2016-06-14T08:45:57.331Z,16192
2016-06-14T08:46:57.085Z,17600
2016-06-14T08:47:56.370Z,17512
2016-06-14T08:48:56.498Z,21536
2016-06-14T08:49:56.485Z,19200
2016-06-14T08:50:56.458Z,16548
2016-06-14T08:51:56.444Z,14276
2016-06-14T08:52:56.728Z,13884
2016-06-14T08:53:56.434Z,12924
2016-06-14T08:54:56.407Z,9732
2016-06-14T08:55:56.378Z,6476
2016-06-14T08:56:56.210Z,6280
2016-06-14T08:57:56.354Z,6036
2016-06-14T08:58:56.324Z,7044
2016-06-14T08:59:56.328Z,8368
2016-06-14T09:00:56.300Z,7288
2016-06-14T09:01:56.288Z,6320
2016-06-14T09:02:56.259Z,6028
2016-06-14T09:03:56.247Z,6128
2016-06-14T09:04:56.218Z,5416
2016-06-14T09:05:56.206Z,5316
2016-06-14T09:06:56.178Z,7736
2016-06-14T09:07:56.166Z,8584
2016-06-14T09:08:56.153Z,8880
2016-06-14T09:09:56.140Z,9724
2016-06-14T09:10:56.111Z,11140
2016-06-14T09:11:55.927Z,13264
2016-06-14T09:12:56.072Z,14228
2016-06-14T09:13:56.059Z,14724
2016-06-14T09:14:56.046Z,15808
2016-06-14T09:15:56.096Z,16644
2016-06-14T09:16:55.849Z,18536
2016-06-14T09:17:56.008Z,21056
2016-06-14T09:18:55.980Z,24992
2016-06-14T09:19:55.952Z,27232
2016-06-14T09:20:55.940Z,29120
2016-06-14T09:21:55.911Z,33184
2016-06-14T09:22:55.899Z,34016
2016-06-14T09:23:55.887Z,36064
2016-06-14T09:24:55.874Z,30816
2016-06-14T09:25:55.846Z,28064
2016-06-14T09:26:55.833Z,17348
2016-06-14T09:27:55.805Z,17940
2016-06-14T09:28:55.792Z,14152
2016-06-14T09:29:55.780Z,12432
2016-06-14T09:30:55.783Z,13592
2016-06-14T09:31:55.801Z,13328
2016-06-14T09:32:55.742Z,16844
2016-06-14T09:33:55.715Z,17924
2016-06-14T09:34:55.685Z,18020
2016-06-14T09:35:55.657Z,9912
2016-06-14T09:36:55.661Z,11908
2016-06-14T09:37:55.649Z,11008
2016-06-14T09:38:55.480Z,13232
2016-06-14T09:39:55.623Z,13004
2016-06-14T09:40:55.578Z,14844
2016-06-14T09:41:55.567Z,15764
2016-06-14T09:42:55.585Z,15688
2016-06-14T09:43:55.573Z,15948
2016-06-14T09:44:55.530Z,14844
2016-06-14T09:45:55.516Z,14244
2016-06-14T09:46:55.364Z,14656
2016-06-14T09:47:55.475Z,17464
2016-06-14T09:48:55.463Z,21792
2016-06-14T09:49:55.436Z,22496
2016-06-14T09:50:55.422Z,19840
2016-06-14T09:51:55.410Z,25600
2016-06-14T09:52:55.381Z,24800
2016-06-14T09:53:55.369Z,18116
2016-06-14T09:54:55.201Z,15524
2016-06-14T09:55:55.344Z,18656
2016-06-14T09:56:55.332Z,20288
2016-06-14T09:57:55.147Z,22848
2016-06-14T09:58:55.291Z,23648
2016-06-14T09:59:54.966Z,22592
2016-06-14T10:00:55.265Z,24672
2016-06-14T10:01:55.441Z,30336
2016-06-14T10:02:55.226Z,36608
2016-06-14T10:03:55.243Z,34944
2016-06-14T10:04:55.185Z,31232
2016-06-14T10:05:55.172Z,33376
2016-06-14T10:06:55.159Z,28352
2016-06-14T10:07:55.147Z,32160
2016-06-14T10:08:55.119Z,33792
2016-06-14T10:09:54.981Z,27968
2016-06-14T10:10:55.093Z,18848
2016-06-14T10:11:55.081Z,15376
2016-06-14T10:12:55.068Z,20416
2016-06-14T10:13:55.040Z,17920
2016-06-14T10:14:55.043Z,15920
2016-06-14T10:15:55.015Z,17116
2016-06-14T10:16:55.689Z,17072
2016-06-14T10:17:54.834Z,17148
2016-06-14T10:18:54.978Z,10700
2016-06-14T10:19:54.948Z,10340
2016-06-14T10:20:54.937Z,12832
2016-06-14T10:21:54.940Z,10520
2016-06-14T10:22:54.912Z,8600
2016-06-14T10:23:54.899Z,10364
2016-06-14T10:24:54.871Z,10852
2016-06-14T10:25:54.842Z,11640
2016-06-14T10:26:54.845Z,14208
2016-06-14T10:27:54.834Z,17324
2016-06-14T10:28:54.820Z,19424
2016-06-14T10:29:54.808Z,20160
2016-06-14T10:30:54.795Z,24032
2016-06-14T10:31:54.860Z,28128
2016-06-14T10:32:54.755Z,21856
2016-06-14T10:33:54.727Z,21024
2016-06-14T10:34:54.713Z,22240
2016-06-14T10:35:54.702Z,18656
2016-06-14T10:36:54.673Z,16456
2016-06-14T10:37:54.676Z,13612
2016-06-14T10:38:54.664Z,20288
2016-06-14T10:39:54.652Z,23168
2016-06-14T10:40:54.623Z,20352
2016-06-14T10:41:54.454Z,15552
2016-06-14T10:42:54.301Z,12920
2016-06-14T10:43:54.617Z,11712
2016-06-14T10:44:54.573Z,13820
2016-06-14T10:45:54.544Z,16484
2016-06-14T10:46:54.392Z,14040
2016-06-14T10:47:54.519Z,12192
2016-06-14T10:48:54.334Z,12964
2016-06-14T10:49:54.479Z,11152
2016-06-14T10:50:54.451Z,11992
2016-06-14T10:51:54.438Z,11536
2016-06-14T10:52:54.441Z,11660
2016-06-14T10:53:54.429Z,14228
2016-06-14T10:54:54.400Z,14104
2016-06-14T10:55:54.388Z,12536
2016-06-14T10:56:54.360Z,10992
2016-06-14T10:57:54.347Z,7184
2016-06-14T10:58:54.350Z,7724
2016-06-14T10:59:54.353Z,11088
2016-06-14T11:00:54.310Z,16760
2016-06-14T11:01:55.422Z,17316
2016-06-14T11:02:54.285Z,19488
2016-06-14T11:03:54.256Z,24832
2016-06-14T11:04:54.244Z,25888
2016-06-14T11:05:54.215Z,23872
2016-06-14T11:06:54.203Z,22688
2016-06-14T11:07:54.190Z,22592
2016-06-14T11:08:54.178Z,17512
2016-06-14T11:09:54.165Z,14464
2016-06-14T11:10:54.152Z,15996
2016-06-14T11:11:54.124Z,22112
2016-06-14T11:12:53.955Z,23552
2016-06-14T11:13:54.099Z,24224
2016-06-14T11:14:54.072Z,18720
2016-06-14T11:15:54.059Z,15756
2016-06-14T11:16:54.452Z,13840
2016-06-14T11:17:54.034Z,18400
2016-06-14T11:18:54.005Z,25088
2016-06-14T11:19:54.008Z,24928
2016-06-14T11:20:53.981Z,23744
2016-06-14T11:21:53.968Z,21344
2016-06-14T11:22:53.956Z,27296
2016-06-14T11:23:53.943Z,27968
2016-06-14T11:24:53.914Z,27904
2016-06-14T11:25:53.902Z,26208
2016-06-14T11:26:53.905Z,24800
2016-06-14T11:27:53.876Z,22720
2016-06-14T11:28:53.865Z,19776
2016-06-14T11:29:53.836Z,18508
2016-06-14T11:30:53.824Z,17640
2016-06-14T11:31:53.811Z,15824
2016-06-14T11:32:53.798Z,14384
2016-06-14T11:33:53.630Z,13420
2016-06-14T11:34:53.773Z,14492
2016-06-14T11:35:53.745Z,15332
2016-06-14T11:36:53.749Z,19584
2016-06-14T11:37:53.721Z,24320
2016-06-14T11:38:53.724Z,23712
2016-06-14T11:39:53.539Z,24288
2016-06-14T11:40:53.697Z,22336
2016-06-14T11:41:53.670Z,15956
2016-06-14T11:42:53.642Z,12360
2016-06-14T11:43:53.629Z,14056
2016-06-14T11:44:53.617Z,17040
2016-06-14T11:45:53.604Z,19232
2016-06-14T11:46:54.576Z,21280
2016-06-14T11:47:55.626Z,25920
2016-06-14T11:48:53.488Z,26176
2016-06-14T11:49:53.398Z,24512
2016-06-14T11:50:53.417Z,22496
2016-06-14T11:51:53.498Z,24896
2016-06-14T11:52:53.485Z,24608
2016-06-14T11:53:53.487Z,21088
2016-06-14T11:54:53.460Z,22048
2016-06-14T11:55:53.448Z,22624
2016-06-14T11:56:53.418Z,21760
2016-06-14T11:57:53.407Z,22880
2016-06-14T11:58:53.410Z,19488
2016-06-14T11:59:53.381Z,21568
2016-06-14T12:00:53.384Z,23584
2016-06-14T12:01:53.216Z,23168
2016-06-14T12:02:53.329Z,22560
2016-06-14T12:03:53.332Z,22208
2016-06-14T12:04:53.319Z,21824
2016-06-14T12:05:53.306Z,22688
2016-06-14T12:06:53.277Z,23392
2016-06-14T12:07:53.266Z,23680
2016-06-14T12:08:53.253Z,23584
2016-06-14T12:09:53.241Z,23616
2016-06-14T12:10:53.072Z,23648
2016-06-14T12:11:53.262Z,22592
2016-06-14T12:12:53.187Z,21504
2016-06-14T12:13:53.174Z,20832
2016-06-14T12:14:53.163Z,19488
2016-06-14T12:15:53.165Z,18656
2016-06-14T12:16:53.481Z,20800
2016-06-14T12:17:52.983Z,22848
2016-06-14T12:18:53.097Z,24032
2016-06-14T12:19:53.083Z,24032
2016-06-14T12:20:52.915Z,22784
2016-06-14T12:21:53.059Z,21600
2016-06-14T12:22:52.890Z,20608
2016-06-14T12:23:53.033Z,18192
2016-06-14T12:24:53.005Z,17732
2016-06-14T12:25:52.994Z,17608
2016-06-14T12:26:52.980Z,19648
2016-06-14T12:27:52.967Z,20352
2016-06-14T12:28:52.955Z,20768
2016-06-14T12:29:52.942Z,20832
2016-06-14T12:30:52.945Z,20512
2016-06-14T12:31:52.933Z,20160
2016-06-14T12:32:53.374Z,19296
2016-06-14T12:33:52.877Z,18108
2016-06-14T12:34:52.880Z,17868
2016-06-14T12:35:52.867Z,18120
2016-06-14T12:36:52.839Z,18292
2016-06-14T12:37:52.828Z,16692
2016-06-14T12:38:52.798Z,17016
2016-06-14T12:39:52.801Z,15760
2016-06-14T12:40:52.790Z,16508
2016-06-14T12:41:52.792Z,16796
2016-06-14T12:42:52.732Z,17472
2016-06-14T12:43:52.596Z,16420
2016-06-14T12:44:52.708Z,14596
2016-06-14T12:45:52.727Z,13512
2016-06-14T12:46:52.995Z,13132
2016-06-14T12:47:52.404Z,13076
2016-06-14T12:48:52.643Z,13656
2016-06-14T12:49:52.489Z,14696
2016-06-14T12:50:52.633Z,15592
2016-06-14T12:51:52.604Z,16308
2016-06-14T12:52:52.591Z,16996
2016-06-14T12:53:52.563Z,18064
2016-06-14T12:54:52.583Z,19136
2016-06-14T12:55:52.570Z,19552
2016-06-14T12:56:52.526Z,19808
2016-06-14T12:57:52.514Z,20000
2016-06-14T12:58:52.485Z,20224
2016-06-14T12:59:52.473Z,20384
2016-06-14T13:00:52.476Z,20672
2016-06-14T13:01:53.088Z,21056
2016-06-14T13:02:52.544Z,21408
2016-06-14T13:03:52.422Z,21408
2016-06-14T13:04:52.410Z,21824
2016-06-14T13:05:52.397Z,22112
2016-06-14T13:06:52.369Z,22144
2016-06-14T13:07:52.357Z,21984
2016-06-14T13:08:52.344Z,21696
2016-06-14T13:09:52.332Z,21440
2016-06-14T13:10:52.319Z,21088
2016-06-14T13:11:52.307Z,20704
2016-06-14T13:12:52.278Z,20512
2016-06-14T13:13:52.281Z,19936
2016-06-14T13:14:52.269Z,20064
2016-06-14T13:15:52.240Z,19872
2016-06-14T13:16:52.822Z,18880
2016-06-14T13:17:52.232Z,17512
2016-06-14T13:18:52.203Z,17296
2016-06-14T13:19:52.191Z,17644
2016-06-14T13:20:52.162Z,17696
2016-06-14T13:21:52.166Z,18752
2016-06-14T13:22:52.137Z,18188
2016-06-14T13:23:52.109Z,15260
2016-06-14T13:24:52.112Z,15456
2016-06-14T13:25:52.100Z,17968
2016-06-14T13:26:52.087Z,18784
2016-06-14T13:27:52.075Z,18784